Time;durP1;ratioP1;P1;durP2;ratioP2;P2;SDS_P1;SDS_P2;PMS_P1;PMS_P2;Temp;Humidity;BMP_temperature;BMP_pressure;BME280_temperature;BME280_humidity;BME280_pressure;Samples;Min_cycle;Max_cycle;Signal;HPM_P1;HPM_P2
2023/06/16 00:01:45;;;;;;;19.02;11.65;;;15.00;72.10;;;;;;4829515;29;20045;-89
2023/06/16 00:04:12;;;;;;;16.83;11.40;;;15.00;72.20;;;;;;4859992;29;20081;-89
2023/06/16 00:06:42;;;;;;;18.65;11.60;;;14.80;72.90;;;;;;4862976;29;20057;-89
2023/06/16 00:09:13;;;;;;;17.90;10.82;;;14.70;73.20;;;;;;4844588;29;20148;-89
2023/06/16 00:11:40;;;;;;;18.60;11.43;;;14.70;73.10;;;;;;4860440;29;20053;-90
2023/06/16 00:14:07;;;;;;;20.08;12.25;;;14.70;73.00;;;;;;4858987;29;20050;-89
2023/06/16 00:16:36;;;;;;;18.90;11.63;;;14.80;72.90;;;;;;4860010;29;20046;-89
2023/06/16 00:19:03;;;;;;;22.77;11.75;;;14.70;72.80;;;;;;4844467;29;20075;-89
2023/06/16 00:21:35;;;;;;;17.90;11.15;;;14.70;72.40;;;;;;4859810;29;20233;-89
2023/06/16 00:24:03;;;;;;;17.70;11.30;;;14.70;72.20;;;;;;4844392;29;20057;-89
2023/06/16 00:26:30;;;;;;;19.00;11.82;;;14.70;72.40;;;;;;4860825;29;20058;-89
2023/06/16 00:28:57;;;;;;;22.43;12.63;;;14.60;72.40;;;;;;4844708;29;20084;-89
2023/06/16 00:31:25;;;;;;;21.48;11.80;;;14.60;72.50;;;;;;4859398;29;20130;-89
2023/06/16 00:33:53;;;;;;;19.35;12.00;;;14.60;72.50;;;;;;4847187;29;20046;-89
2023/06/16 00:36:20;;;;;;;17.48;11.50;;;14.50;72.60;;;;;;4852099;29;20050;-89
2023/06/16 00:38:47;;;;;;;19.15;11.60;;;14.50;72.70;;;;;;4862199;29;20137;-89
2023/06/16 00:41:14;;;;;;;18.87;11.60;;;14.40;72.90;;;;;;4845843;29;20052;-89
2023/06/16 00:43:42;;;;;;;16.92;10.57;;;14.40;73.10;;;;;;4844922;29;20053;-89
2023/06/16 00:46:12;;;;;;;17.98;11.00;;;14.40;72.90;;;;;;4847170;29;20046;-89
2023/06/16 00:48:39;;;;;;;17.77;10.38;;;14.30;72.90;;;;;;4844079;29;20413;-89
2023/06/16 00:51:06;;;;;;;18.55;11.52;;;14.20;72.90;;;;;;4843889;29;20056;-89
2023/06/16 00:53:33;;;;;;;17.60;10.47;;;14.30;72.90;;;;;;4861634;29;20050;-89
2023/06/16 00:56:01;;;;;;;15.85;10.75;;;14.40;72.90;;;;;;4828929;29;20047;-89
2023/06/16 00:58:31;;;;;;;18.00;11.38;;;14.30;72.80;;;;;;4843700;29;20050;-88
2023/06/16 01:00:59;;;;;;;18.90;11.07;;;14.20;73.40;;;;;;4848215;29;20049;-89
2023/06/16 01:03:26;;;;;;;17.77;11.77;;;14.00;73.70;;;;;;4849392;29;20053;-89
2023/06/16 01:05:56;;;;;;;18.03;11.43;;;14.00;73.70;;;;;;4832799;29;20060;-89
2023/06/16 01:08:44;;;;;;;17.00;11.60;;;14.00;73.60;;;;;;4851831;29;20060;-89
2023/06/16 01:11:14;;;;;;;18.10;11.25;;;14.10;73.50;;;;;;4849415;29;20094;-89
2023/06/16 01:13:55;;;;;;;19.05;11.27;;;14.10;73.30;;;;;;4838747;29;20045;-89
2023/06/16 01:16:28;;;;;;;17.90;11.52;;;14.10;73.30;;;;;;4846418;29;20045;-89
2023/06/16 01:18:56;;;;;;;17.57;11.00;;;14.10;73.40;;;;;;4839858;29;20500;-88
2023/06/16 01:21:57;;;;;;;16.23;11.02;;;14.10;73.20;;;;;;4865838;29;20087;-88
2023/06/16 01:24:25;;;;;;;19.13;11.25;;;14.10;73.50;;;;;;4854758;29;20073;-89
2023/06/16 01:26:55;;;;;;;16.42;10.93;;;14.00;73.70;;;;;;4856652;29;20049;-88
2023/06/16 01:29:25;;;;;;;17.42;10.98;;;13.90;73.70;;;;;;4839363;29;20149;-89
2023/06/16 01:31:57;;;;;;;15.73;10.27;;;13.90;73.80;;;;;;4841748;29;20080;-88
2023/06/16 01:34:26;;;;;;;16.73;10.27;;;13.90;74.00;;;;;;4854902;29;20055;-88
2023/06/16 01:36:55;;;;;;;16.88;10.52;;;13.80;74.20;;;;;;4859962;29;20074;-88
2023/06/16 01:39:25;;;;;;;18.70;10.35;;;13.80;74.10;;;;;;4862030;29;20052;-89
2023/06/16 01:41:54;;;;;;;17.27;9.77;;;13.80;74.10;;;;;;4871487;29;20044;-89
2023/06/16 01:44:22;;;;;;;16.20;10.13;;;13.80;74.10;;;;;;4848579;29;20419;-89
2023/06/16 01:46:50;;;;;;;18.30;11.63;;;13.80;74.10;;;;;;4852824;29;20055;-88
2023/06/16 01:49:18;;;;;;;16.33;10.77;;;13.80;74.10;;;;;;4847215;29;20535;-89
2023/06/16 01:51:45;;;;;;;17.95;11.18;;;13.80;74.20;;;;;;4851719;29;20393;-88
2023/06/16 01:54:12;;;;;;;16.10;10.45;;;13.60;74.50;;;;;;4853269;29;20063;-89
2023/06/16 01:56:40;;;;;;;19.13;12.00;;;13.40;75.10;;;;;;4851901;29;20045;-88
2023/06/16 01:59:07;;;;;;;20.55;12.15;;;13.30;75.50;;;;;;4848091;29;20462;-88
2023/06/16 02:01:48;;;;;;;16.52;11.52;;;13.20;76.10;;;;;;4860363;29;20050;-88
2023/06/16 02:04:20;;;;;;;16.67;10.55;;;13.10;76.30;;;;;;4857097;29;20192;-88
2023/06/16 02:07:03;;;;;;;17.02;10.95;;;13.10;76.30;;;;;;4856073;29;20053;-88
2023/06/16 02:09:33;;;;;;;15.00;10.43;;;13.20;76.10;;;;;;4831072;29;20413;-89
2023/06/16 02:12:00;;;;;;;15.38;10.50;;;13.20;75.70;;;;;;4849505;29;20045;-88
2023/06/16 02:14:33;;;;;;;15.80;10.13;;;13.30;75.10;;;;;;4853706;29;20045;-88
2023/06/16 02:17:09;;;;;;;17.85;11.35;;;13.40;74.80;;;;;;4854129;29;20092;-88
2023/06/16 02:19:39;;;;;;;15.45;10.65;;;13.50;74.80;;;;;;4856121;29;20050;-88
2023/06/16 02:22:06;;;;;;;14.93;9.93;;;13.40;74.80;;;;;;4850153;29;20041;-88
2023/06/16 02:24:35;;;;;;;17.77;11.32;;;13.30;74.70;;;;;;4865677;29;20053;-89
2023/06/16 02:27:03;;;;;;;20.27;10.90;;;13.40;74.80;;;;;;4853999;29;20556;-89
2023/06/16 02:29:31;;;;;;;14.45;9.50;;;13.40;74.80;;;;;;4852129;29;20077;-89
2023/06/16 02:31:58;;;;;;;18.10;10.23;;;13.40;74.50;;;;;;4869436;29;20049;-89
2023/06/16 02:34:25;;;;;;;14.87;9.73;;;13.40;74.30;;;;;;4860632;29;20041;-89
2023/06/16 02:36:52;;;;;;;15.50;10.07;;;13.50;74.20;;;;;;4843774;29;20118;-89
2023/06/16 02:39:21;;;;;;;18.60;11.25;;;13.50;74.00;;;;;;4838133;29;20042;-89
2023/06/16 02:41:49;;;;;;;17.85;10.40;;;13.50;73.70;;;;;;4854613;29;20048;-88
2023/06/16 02:44:18;;;;;;;16.70;10.55;;;13.50;73.70;;;;;;4839110;29;20060;-88
2023/06/16 02:46:45;;;;;;;16.33;10.07;;;13.50;73.70;;;;;;4854928;29;20140;-88
2023/06/16 02:49:12;;;;;;;13.60;8.93;;;13.50;73.80;;;;;;4844988;29;20055;-88
2023/06/16 02:51:41;;;;;;;15.80;9.85;;;13.50;73.70;;;;;;4856300;29;20050;-88
2023/06/16 02:54:09;;;;;;;14.77;10.15;;;13.50;73.60;;;;;;4868529;29;20046;-88
2023/06/16 02:56:36;;;;;;;16.38;10.60;;;13.50;73.80;;;;;;4863350;29;20045;-88
2023/06/16 02:59:04;;;;;;;16.57;9.40;;;13.40;73.90;;;;;;4843386;29;20054;-88
2023/06/16 03:01:32;;;;;;;15.73;10.00;;;13.40;73.90;;;;;;4823697;29;20116;-89
2023/06/16 03:04:34;;;;;;;17.42;10.85;;;13.30;74.20;;;;;;4803199;29;20133;-88
2023/06/16 03:07:22;;;;;;;21.40;12.15;;;13.30;74.50;;;;;;4816303;29;20057;-88
2023/06/16 03:09:49;;;;;;;20.10;12.90;;;13.10;75.00;;;;;;4823788;29;20506;-88
2023/06/16 03:12:19;;;;;;;19.80;12.57;;;13.00;75.60;;;;;;4810035;29;20080;-88
2023/06/16 03:15:07;;;;;;;18.45;11.98;;;12.90;76.30;;;;;;4823827;29;20054;-88
2023/06/16 03:17:35;;;;;;;20.90;12.18;;;12.70;76.90;;;;;;4823413;29;20045;-88
2023/06/16 03:20:07;;;;;;;17.25;11.68;;;12.60;77.30;;;;;;4808137;29;20075;-88
2023/06/16 03:22:47;;;;;;;17.83;11.10;;;12.60;77.50;;;;;;4811789;29;20134;-88
2023/06/16 03:25:15;;;;;;;18.73;11.60;;;12.50;77.60;;;;;;4811238;29;20050;-88
2023/06/16 03:27:48;;;;;;;19.65;11.63;;;12.50;77.70;;;;;;4808949;29;20046;-89
2023/06/16 03:30:23;;;;;;;16.40;10.77;;;12.50;77.90;;;;;;4826356;29;20568;-89
2023/06/16 03:33:09;;;;;;;17.27;11.32;;;12.50;77.90;;;;;;4836605;29;20047;-89
2023/06/16 03:35:38;;;;;;;18.58;12.00;;;12.50;78.00;;;;;;4808854;29;20161;-89
2023/06/16 03:38:13;;;;;;;17.53;10.97;;;12.50;78.00;;;;;;4812523;29;20412;-89
2023/06/16 03:40:43;;;;;;;16.67;11.15;;;12.60;77.70;;;;;;4808833;29;20081;-89
2023/06/16 03:43:10;;;;;;;18.63;11.57;;;12.60;77.40;;;;;;4831349;29;20034;-89
2023/06/16 03:45:37;;;;;;;17.60;11.10;;;12.70;77.20;;;;;;4810644;29;20042;-88
2023/06/16 03:48:07;;;;;;;15.85;10.77;;;12.80;77.00;;;;;;4826434;29;20098;-88
2023/06/16 03:50:41;;;;;;;18.20;10.73;;;12.80;77.00;;;;;;4829789;29;20054;-88
2023/06/16 03:53:08;;;;;;;18.88;11.02;;;12.80;77.00;;;;;;4829729;29;20144;-90
2023/06/16 03:55:38;;;;;;;21.15;12.30;;;12.90;76.90;;;;;;4815820;29;20066;-89
2023/06/16 03:58:07;;;;;;;16.85;10.55;;;13.00;76.70;;;;;;4812405;29;20498;-89
2023/06/16 04:00:34;;;;;;;15.55;10.20;;;13.10;76.40;;;;;;4842563;29;20416;-90
2023/06/16 04:03:02;;;;;;;16.63;11.20;;;13.20;76.20;;;;;;4830203;29;20049;-90
2023/06/16 04:05:31;;;;;;;18.17;11.43;;;13.30;76.10;;;;;;4857978;29;20054;-89
2023/06/16 04:07:59;;;;;;;18.00;10.52;;;13.40;75.80;;;;;;4845194;29;20569;-88
2023/06/16 04:10:26;;;;;;;18.63;10.60;;;13.50;75.90;;;;;;4859295;29;20060;-88
2023/06/16 04:12:56;;;;;;;18.25;10.82;;;13.50;76.00;;;;;;4859266;29;20133;-88
2023/06/16 04:15:23;;;;;;;17.80;10.80;;;13.50;75.70;;;;;;4844931;29;20050;-88
2023/06/16 04:17:51;;;;;;;16.85;10.80;;;13.50;75.70;;;;;;4844960;29;20038;-88
2023/06/16 04:20:20;;;;;;;17.65;10.30;;;13.50;75.80;;;;;;4861919;29;20045;-88
2023/06/16 04:22:48;;;;;;;16.35;9.93;;;13.60;75.90;;;;;;4858315;29;20054;-88
2023/06/16 04:25:15;;;;;;;16.83;10.50;;;13.70;75.60;;;;;;4840820;29;20055;-87
2023/06/16 04:27:46;;;;;;;16.57;9.80;;;13.80;75.30;;;;;;4853152;29;20046;-85
2023/06/16 04:30:14;;;;;;;17.23;11.45;;;14.00;75.50;;;;;;4844619;29;20060;-86
2023/06/16 04:32:44;;;;;;;17.80;10.38;;;14.20;75.30;;;;;;4857995;29;20129;-86
2023/06/16 04:35:15;;;;;;;16.45;10.82;;;14.30;74.80;;;;;;4833304;29;20078;-86
2023/06/16 04:37:43;;;;;;;19.10;11.18;;;14.50;74.40;;;;;;4858067;29;20054;-86
2023/06/16 04:40:11;;;;;;;18.67;10.00;;;14.60;74.00;;;;;;4828551;29;20957;-86
2023/06/16 04:42:38;;;;;;;18.20;10.30;;;14.70;73.90;;;;;;4859311;29;20049;-86
2023/06/16 04:45:07;;;;;;;18.75;12.15;;;14.80;73.40;;;;;;4836190;29;20046;-86
2023/06/16 04:47:40;;;;;;;17.83;10.30;;;14.90;73.20;;;;;;4849460;29;20465;-86
2023/06/16 04:50:08;;;;;;;19.40;11.57;;;14.90;73.40;;;;;;4844975;29;20049;-86
2023/06/16 04:52:36;;;;;;;18.27;11.10;;;15.00;73.30;;;;;;4843259;29;20053;-86
2023/06/16 04:55:05;;;;;;;22.88;11.40;;;15.10;73.10;;;;;;4859658;29;20057;-87
2023/06/16 04:57:34;;;;;;;22.85;11.93;;;15.30;72.70;;;;;;4856055;29;20050;-87
2023/06/16 05:00:07;;;;;;;23.25;11.55;;;15.40;72.50;;;;;;4843090;29;20042;-86
2023/06/16 05:02:35;;;;;;;21.80;11.90;;;15.50;72.40;;;;;;4828245;29;20065;-87
2023/06/16 05:05:03;;;;;;;25.80;12.13;;;15.60;72.20;;;;;;4842845;29;20049;-86
2023/06/16 05:07:31;;;;;;;23.35;11.27;;;15.80;72.00;;;;;;4857652;29;20054;-87
2023/06/16 05:09:58;;;;;;;27.38;13.32;;;16.00;72.00;;;;;;4828906;29;20137;-87
2023/06/16 05:12:27;;;;;;;24.30;12.60;;;16.10;71.30;;;;;;4852034;29;20458;-87
2023/06/16 05:14:54;;;;;;;22.25;12.60;;;16.20;71.40;;;;;;4842810;29;20042;-86
2023/06/16 05:17:22;;;;;;;20.43;11.87;;;16.30;71.20;;;;;;4859206;29;20409;-87
2023/06/16 05:19:49;;;;;;;24.33;13.55;;;16.50;71.40;;;;;;4857136;29;20045;-87
2023/06/16 05:22:23;;;;;;;33.67;14.18;;;16.70;70.70;;;;;;4858639;29;20528;-87
2023/06/16 05:24:57;;;;;;;29.73;14.15;;;16.80;70.20;;;;;;4858012;29;20133;-87
2023/06/16 05:27:25;;;;;;;31.00;14.00;;;17.00;69.80;;;;;;4826975;29;20046;-87
2023/06/16 05:29:54;;;;;;;26.03;14.17;;;17.10;69.80;;;;;;4844955;29;20098;-86
2023/06/16 05:32:26;;;;;;;27.58;14.45;;;17.30;69.70;;;;;;4843152;29;20442;-87
2023/06/16 05:34:53;;;;;;;28.92;14.38;;;17.40;69.70;;;;;;4858473;29;20576;-87
2023/06/16 05:37:22;;;;;;;22.98;13.75;;;17.50;68.60;;;;;;4843192;29;20050;-87
2023/06/16 05:39:51;;;;;;;27.90;14.05;;;17.60;68.30;;;;;;4855716;29;20049;-87
2023/06/16 05:42:19;;;;;;;23.33;12.50;;;17.90;68.90;;;;;;4859055;29;20111;-87
2023/06/16 05:44:47;;;;;;;22.38;13.82;;;18.10;68.30;;;;;;4827666;29;20124;-86
2023/06/16 05:47:15;;;;;;;21.75;13.43;;;18.20;68.20;;;;;;4859729;29;20050;-87
2023/06/16 05:49:42;;;;;;;22.67;12.68;;;18.30;67.00;;;;;;4856881;29;20561;-87
2023/06/16 05:52:10;;;;;;;20.20;13.13;;;18.50;66.10;;;;;;4859658;29;20094;-87
2023/06/16 05:54:40;;;;;;;19.03;13.57;;;18.60;66.30;;;;;;4842324;29;20149;-87
2023/06/16 05:57:11;;;;;;;20.98;12.43;;;18.60;65.70;;;;;;4858847;29;20046;-87
2023/06/16 05:59:38;;;;;;;23.42;13.48;;;18.80;66.50;;;;;;4830529;29;20052;-87
2023/06/16 06:02:06;;;;;;;20.00;12.02;;;18.90;64.80;;;;;;4858799;29;20453;-88
2023/06/16 06:04:34;;;;;;;20.25;12.02;;;19.00;64.80;;;;;;4857181;29;20124;-87
2023/06/16 06:07:06;;;;;;;19.60;12.27;;;19.10;64.90;;;;;;4831495;29;20046;-87
2023/06/16 06:09:33;;;;;;;17.30;12.05;;;19.30;64.60;;;;;;4841522;29;20118;-88
2023/06/16 06:12:02;;;;;;;20.92;12.15;;;19.30;63.50;;;;;;4856930;29;20042;-88
2023/06/16 06:14:30;;;;;;;19.80;11.30;;;19.30;63.40;;;;;;4858048;29;20050;-88
2023/06/16 06:16:58;;;;;;;17.00;10.18;;;19.30;62.60;;;;;;4842795;29;20041;-88
2023/06/16 06:19:26;;;;;;;16.43;9.87;;;19.40;63.60;;;;;;4856060;29;20074;-88
2023/06/16 06:21:55;;;;;;;29.70;10.05;;;19.60;63.90;;;;;;4842782;29;20098;-88
2023/06/16 06:24:25;;;;;;;17.13;8.15;;;19.80;62.50;;;;;;4845993;29;20550;-88
2023/06/16 06:26:53;;;;;;;12.38;6.68;;;19.80;60.80;;;;;;4855567;29;20061;-88
2023/06/16 06:29:20;;;;;;;15.80;8.20;;;19.80;58.60;;;;;;4843652;29;20052;-88
2023/06/16 06:31:47;;;;;;;14.97;8.40;;;19.90;60.20;;;;;;4856691;29;20093;-88
2023/06/16 06:34:14;;;;;;;15.20;8.82;;;19.90;59.20;;;;;;4854727;29;20054;-87
2023/06/16 06:36:42;;;;;;;17.17;9.23;;;20.00;59.70;;;;;;4857805;29;20041;-88
2023/06/16 06:39:09;;;;;;;15.48;8.18;;;20.10;60.60;;;;;;4846828;29;20045;-88
2023/06/16 06:41:40;;;;;;;14.07;8.07;;;20.10;60.70;;;;;;4824944;29;20091;-88
2023/06/16 06:44:15;;;;;;;13.90;8.60;;;20.10;60.30;;;;;;4842384;29;20057;-88
2023/06/16 06:46:48;;;;;;;12.85;7.93;;;20.00;59.60;;;;;;4839180;29;20056;-88
2023/06/16 06:49:17;;;;;;;15.82;9.57;;;20.00;59.20;;;;;;4842932;29;20049;-87
2023/06/16 06:51:44;;;;;;;13.43;7.78;;;20.10;58.70;;;;;;4840662;29;20050;-88
2023/06/16 06:54:11;;;;;;;12.73;8.20;;;20.20;59.10;;;;;;4842696;29;20061;-88
2023/06/16 06:56:38;;;;;;;14.90;8.50;;;20.30;59.40;;;;;;4857689;29;20397;-88
2023/06/16 06:59:05;;;;;;;20.13;9.20;;;20.30;58.80;;;;;;4843503;29;20057;-88
2023/06/16 07:01:32;;;;;;;14.90;8.98;;;20.50;58.50;;;;;;4858049;29;20041;-88
2023/06/16 07:04:02;;;;;;;14.77;8.23;;;20.60;58.70;;;;;;4858122;29;20045;-88
2023/06/16 07:06:29;;;;;;;16.17;9.40;;;20.70;58.00;;;;;;4841306;29;20137;-86
2023/06/16 07:08:58;;;;;;;15.37;9.07;;;20.70;58.40;;;;;;4843200;29;20059;-88
2023/06/16 07:11:25;;;;;;;14.93;9.63;;;20.80;57.80;;;;;;4827034;29;20096;-88
2023/06/16 07:13:52;;;;;;;12.77;8.18;;;20.80;57.70;;;;;;4842489;29;20155;-88
2023/06/16 07:16:19;;;;;;;16.70;9.02;;;20.60;58.40;;;;;;4841145;29;20050;-88
2023/06/16 07:18:48;;;;;;;14.75;9.45;;;20.20;59.30;;;;;;4840414;29;20145;-88
2023/06/16 07:21:16;;;;;;;14.33;9.87;;;20.20;59.50;;;;;;4858284;29;20064;-88
2023/06/16 07:23:43;;;;;;;15.75;10.00;;;20.20;59.10;;;;;;4841657;29;20054;-88
2023/06/16 07:26:10;;;;;;;16.75;9.52;;;20.40;58.90;;;;;;4860047;29;20050;-88
2023/06/16 07:28:42;;;;;;;13.70;9.73;;;20.40;59.30;;;;;;4844996;29;20572;-88
2023/06/16 07:31:10;;;;;;;82.13;12.23;;;20.30;59.60;;;;;;4844402;29;20042;-88
2023/06/16 07:33:37;;;;;;;19.20;8.57;;;20.50;59.00;;;;;;4846204;29;20049;-88
2023/06/16 07:36:04;;;;;;;15.95;9.07;;;20.60;58.40;;;;;;4842752;29;20516;-88
2023/06/16 07:38:31;;;;;;;16.75;9.18;;;20.70;58.90;;;;;;4845486;29;20056;-88
2023/06/16 07:40:58;;;;;;;13.55;8.48;;;20.90;58.20;;;;;;4855542;29;20045;-88
2023/06/16 07:43:26;;;;;;;19.08;9.40;;;21.10;58.20;;;;;;4842853;29;20099;-87
2023/06/16 07:45:53;;;;;;;16.13;8.77;;;21.10;57.30;;;;;;4844149;29;20412;-88
2023/06/16 07:48:20;;;;;;;19.25;9.05;;;21.30;57.80;;;;;;4852147;29;20050;-88
2023/06/16 07:50:47;;;;;;;15.98;9.27;;;21.20;57.00;;;;;;4844012;29;20061;-87
2023/06/16 07:53:15;;;;;;;15.20;8.68;;;21.20;57.10;;;;;;4844595;29;20042;-88
2023/06/16 07:55:42;;;;;;;15.13;8.68;;;21.20;56.60;;;;;;4845066;29;20037;-88
2023/06/16 07:58:09;;;;;;;14.70;8.30;;;21.50;55.50;;;;;;4843888;29;20042;-88
2023/06/16 08:00:36;;;;;;;14.43;8.45;;;21.50;55.90;;;;;;4843747;29;20133;-88
2023/06/16 08:03:04;;;;;;;15.40;8.77;;;21.50;55.30;;;;;;4843837;29;20047;-88
2023/06/16 08:05:31;;;;;;;14.85;8.32;;;21.50;55.60;;;;;;4846016;29;20053;-88
2023/06/16 08:07:58;;;;;;;17.40;9.07;;;21.60;55.70;;;;;;4844158;29;20042;-88
2023/06/16 08:10:25;;;;;;;13.43;7.83;;;21.80;55.80;;;;;;4860218;29;20510;-88
2023/06/16 08:12:52;;;;;;;13.27;8.43;;;22.00;55.60;;;;;;4843591;29;20050;-88
2023/06/16 08:15:20;;;;;;;15.20;8.93;;;22.00;56.00;;;;;;4844839;29;20052;-88
2023/06/16 08:17:47;;;;;;;13.70;7.90;;;22.00;54.80;;;;;;4842922;29;20150;-88
2023/06/16 08:20:14;;;;;;;16.10;9.00;;;22.10;55.00;;;;;;4843125;29;20443;-88
2023/06/16 08:22:42;;;;;;;14.23;7.83;;;22.30;54.80;;;;;;4861064;29;20060;-88
2023/06/16 08:25:09;;;;;;;13.35;7.90;;;22.40;54.90;;;;;;4844220;29;20045;-88
2023/06/16 08:27:36;;;;;;;12.23;7.90;;;22.60;55.60;;;;;;4861101;29;20396;-88
2023/06/16 08:30:04;;;;;;;12.88;7.82;;;22.70;55.20;;;;;;4849920;29;20083;-88
2023/06/16 08:32:31;;;;;;;13.82;8.55;;;22.80;55.70;;;;;;4841613;29;20459;-88
2023/06/16 08:34:58;;;;;;;13.47;8.00;;;22.90;54.40;;;;;;4844879;29;20087;-88
2023/06/16 08:37:25;;;;;;;15.07;8.05;;;22.90;55.10;;;;;;4848408;29;20560;-88
2023/06/16 08:39:57;;;;;;;14.23;7.10;;;23.00;54.20;;;;;;4843752;29;20049;-88
2023/06/16 08:42:25;;;;;;;15.20;7.68;;;23.00;54.40;;;;;;4843940;29;20081;-89
2023/06/16 08:44:53;;;;;;;12.65;6.93;;;23.10;54.20;;;;;;4850759;29;20049;-89
2023/06/16 08:47:20;;;;;;;13.23;7.90;;;23.10;53.90;;;;;;4842996;29;20066;-88
2023/06/16 08:49:52;;;;;;;13.48;8.15;;;22.90;53.10;;;;;;4843368;29;20083;-88
2023/06/16 08:52:21;;;;;;;12.57;7.00;;;23.00;52.30;;;;;;4843102;29;20054;-88
2023/06/16 08:55:09;;;;;;;13.32;6.68;;;23.10;52.30;;;;;;4843956;29;20427;-88
2023/06/16 08:57:47;;;;;;;15.65;7.28;;;23.40;53.50;;;;;;4842403;29;20060;-88
2023/06/16 09:00:16;;;;;;;12.70;7.57;;;23.60;52.80;;;;;;4841082;29;20065;-89
2023/06/16 09:02:49;;;;;;;13.82;7.78;;;23.60;51.00;;;;;;4860582;29;20507;-89
2023/06/16 09:05:21;;;;;;;12.10;7.00;;;23.50;50.90;;;;;;4844647;29;20145;-88
2023/06/16 09:07:51;;;;;;;11.27;6.93;;;23.40;51.60;;;;;;4843324;29;20504;-88
2023/06/16 09:10:19;;;;;;;10.63;6.60;;;23.50;50.60;;;;;;4843969;29;20505;-88
2023/06/16 09:12:52;;;;;;;10.87;6.07;;;23.70;50.70;;;;;;4843095;29;20458;-88
2023/06/16 09:15:21;;;;;;;12.13;6.43;;;23.60;49.60;;;;;;4859505;29;20050;-89
2023/06/16 09:17:49;;;;;;;12.38;6.50;;;23.50;51.00;;;;;;4843005;29;20071;-88
2023/06/16 09:20:22;;;;;;;10.82;6.63;;;23.40;51.10;;;;;;4860067;29;20050;-88
2023/06/16 09:22:59;;;;;;;11.48;6.40;;;23.60;50.60;;;;;;4857937;29;20558;-88
2023/06/16 09:25:30;;;;;;;12.50;6.10;;;23.90;51.90;;;;;;4828909;29;20440;-88
2023/06/16 09:27:59;;;;;;;9.80;6.07;;;24.20;50.50;;;;;;4838570;29;20045;-88
2023/06/16 09:30:31;;;;;;;9.98;6.53;;;24.40;48.40;;;;;;4859189;29;20054;-88
2023/06/16 09:32:58;;;;;;;13.52;7.10;;;24.50;49.50;;;;;;4843531;29;20500;-88
2023/06/16 09:35:30;;;;;;;11.27;6.53;;;24.50;49.10;;;;;;4857689;29;20114;-88
2023/06/16 09:38:00;;;;;;;10.23;6.63;;;24.60;49.10;;;;;;4843516;29;20045;-88
2023/06/16 09:40:29;;;;;;;11.88;5.85;;;24.40;48.50;;;;;;4843568;29;20050;-89
2023/06/16 09:43:01;;;;;;;10.93;6.60;;;24.10;48.80;;;;;;4843421;29;20045;-87
2023/06/16 09:45:32;;;;;;;11.98;6.03;;;23.60;49.10;;;;;;4844296;29;20042;-88
2023/06/16 09:48:04;;;;;;;12.60;5.75;;;23.50;48.00;;;;;;4839181;29;20463;-88
2023/06/16 09:50:33;;;;;;;11.63;5.83;;;23.60;47.60;;;;;;4843686;29;20058;-88
2023/06/16 09:53:04;;;;;;;9.80;6.00;;;23.30;48.40;;;;;;4857289;29;20118;-88
2023/06/16 09:55:33;;;;;;;12.00;6.32;;;23.50;48.50;;;;;;4843156;29;20053;-88
2023/06/16 09:58:00;;;;;;;11.02;6.25;;;23.50;49.70;;;;;;4844449;29;20045;-88
2023/06/16 10:00:28;;;;;;;10.00;6.10;;;23.90;48.70;;;;;;4859822;29;20050;-88
2023/06/16 10:02:57;;;;;;;9.90;6.07;;;24.30;48.90;;;;;;4842813;29;20263;-88
2023/06/16 10:05:25;;;;;;;13.00;5.80;;;24.60;47.60;;;;;;4839181;29;20402;-88
2023/06/16 10:07:59;;;;;;;9.50;5.10;;;24.70;47.20;;;;;;4844067;29;20050;-88
2023/06/16 10:10:29;;;;;;;11.63;5.60;;;24.60;47.40;;;;;;4843063;29;20057;-88
2023/06/16 10:12:58;;;;;;;8.43;5.32;;;24.40;46.10;;;;;;4856744;29;20548;-88
2023/06/16 10:15:31;;;;;;;8.70;4.97;;;24.40;47.50;;;;;;4858175;29;20050;-88
2023/06/16 10:18:04;;;;;;;9.73;4.75;;;24.40;46.00;;;;;;4842480;29;20146;-88
2023/06/16 10:20:37;;;;;;;9.52;4.97;;;24.40;46.50;;;;;;4840794;29;20054;-89
2023/06/16 10:23:05;;;;;;;29.08;5.85;;;24.50;46.10;;;;;;4843511;29;20057;-88
2023/06/16 10:25:33;;;;;;;8.63;4.90;;;24.50;45.60;;;;;;4854732;29;20048;-89
2023/06/16 10:28:05;;;;;;;11.93;5.23;;;24.60;46.10;;;;;;4842352;29;20041;-88
2023/06/16 10:30:32;;;;;;;10.57;4.63;;;24.70;43.70;;;;;;4856999;29;20480;-88
2023/06/16 10:33:14;;;;;;;8.07;5.00;;;25.10;46.00;;;;;;4841382;29;20051;-88
2023/06/16 10:35:49;;;;;;;12.45;4.63;;;25.10;44.20;;;;;;4842842;29;20060;-88
2023/06/16 10:38:23;;;;;;;10.63;4.80;;;25.10;42.30;;;;;;4858054;29;20057;-88
2023/06/16 10:40:56;;;;;;;12.00;4.63;;;24.40;43.30;;;;;;4856536;29;20102;-88
2023/06/16 10:43:26;;;;;;;9.00;4.85;;;24.30;44.60;;;;;;4856091;29;20497;-88
2023/06/16 10:46:16;;;;;;;10.65;5.00;;;24.20;44.80;;;;;;4841675;29;20465;-88
2023/06/16 10:48:56;;;;;;;10.63;4.82;;;24.50;43.90;;;;;;4848606;29;20585;-88
2023/06/16 10:51:48;;;;;;;10.00;4.88;;;24.60;43.90;;;;;;4857546;29;20129;-88
2023/06/16 10:54:36;;;;;;;9.37;4.40;;;24.20;44.80;;;;;;4858796;29;20140;-88
2023/06/16 10:57:08;;;;;;;8.93;4.53;;;24.20;44.80;;;;;;4841728;29;20048;-88
2023/06/16 10:59:56;;;;;;;8.25;4.57;;;24.50;44.30;;;;;;4858748;29;20050;-88
2023/06/16 11:02:24;;;;;;;7.82;4.75;;;24.80;44.10;;;;;;4862901;29;20049;-88
2023/06/16 11:05:22;;;;;;;10.35;4.97;;;24.90;43.80;;;;;;4861704;29;20466;-88
2023/06/16 11:08:01;;;;;;;29.37;5.97;;;24.80;43.70;;;;;;4859967;29;20053;-88
2023/06/16 11:10:46;;;;;;;10.82;4.85;;;24.90;45.10;;;;;;4860064;29;20042;-88
2023/06/16 11:13:17;;;;;;;13.38;5.65;;;25.00;44.90;;;;;;4859253;29;20429;-88
2023/06/16 11:15:45;;;;;;;8.23;5.20;;;25.00;45.10;;;;;;4843955;29;20073;-88
2023/06/16 11:18:13;;;;;;;10.52;5.40;;;25.00;43.40;;;;;;4861322;29;20497;-88
2023/06/16 11:20:41;;;;;;;10.23;4.77;;;25.00;43.30;;;;;;4861468;29;20056;-88
2023/06/16 11:23:08;;;;;;;9.52;5.07;;;25.10;43.10;;;;;;4845947;29;20467;-88
2023/06/16 11:25:37;;;;;;;9.82;4.50;;;25.00;44.00;;;;;;4846527;29;20065;-88
2023/06/16 11:28:05;;;;;;;8.82;4.63;;;25.10;42.20;;;;;;4862092;29;20141;-88
2023/06/16 11:30:35;;;;;;;8.57;4.75;;;24.70;41.90;;;;;;4844241;29;20049;-89
2023/06/16 11:33:03;;;;;;;14.43;5.07;;;24.60;42.50;;;;;;4844975;29;20149;-88
2023/06/16 11:35:31;;;;;;;10.27;4.93;;;24.60;41.60;;;;;;4860525;29;20102;-89
2023/06/16 11:38:01;;;;;;;8.15;4.82;;;24.60;41.60;;;;;;4844193;29;20046;-88
2023/06/16 11:40:30;;;;;;;8.50;3.78;;;24.60;40.90;;;;;;4860113;29;20041;-88
2023/06/16 11:42:58;;;;;;;8.23;4.60;;;24.60;42.40;;;;;;4860900;29;20106;-89
2023/06/16 11:45:36;;;;;;;7.47;4.27;;;24.60;41.00;;;;;;4829621;29;20054;-88
2023/06/16 11:48:06;;;;;;;8.32;3.80;;;24.60;40.80;;;;;;4858575;29;20042;-89
2023/06/16 11:50:34;;;;;;;8.13;4.15;;;24.60;39.70;;;;;;4858331;29;20053;-88
2023/06/16 11:53:02;;;;;;;10.60;4.20;;;24.60;39.80;;;;;;4860106;29;20078;-88
2023/06/16 11:55:29;;;;;;;7.82;3.60;;;24.60;39.60;;;;;;4843766;29;20045;-90
2023/06/16 11:57:57;;;;;;;7.83;4.07;;;24.60;39.30;;;;;;4846269;29;20089;-89
2023/06/16 12:00:27;;;;;;;7.95;4.03;;;24.60;39.30;;;;;;4859228;29;20050;-89
2023/06/16 12:02:55;;;;;;;44.90;6.32;;;24.60;40.00;;;;;;4843791;29;20070;-89
2023/06/16 12:05:27;;;;;;;32.30;4.57;;;24.60;39.50;;;;;;4846391;29;20052;-89
2023/06/16 12:07:54;;;;;;;8.40;3.90;;;24.70;40.70;;;;;;4844587;29;20509;-89
2023/06/16 12:10:25;;;;;;;8.20;4.00;;;24.60;39.30;;;;;;4860318;29;20106;-88
2023/06/16 12:12:52;;;;;;;13.93;6.72;;;24.50;39.10;;;;;;4859062;29;20054;-89
2023/06/16 12:15:21;;;;;;;20.55;9.38;;;24.60;39.70;;;;;;4860877;29;20478;-89
2023/06/16 12:17:49;;;;;;;45.08;17.15;;;24.80;39.00;;;;;;4860447;29;20053;-89
2023/06/16 12:20:18;;;;;;;16.85;7.50;;;25.00;39.60;;;;;;4860184;29;20042;-89
2023/06/16 12:22:46;;;;;;;26.13;12.67;;;25.10;40.50;;;;;;4860416;29;20042;-89
2023/06/16 12:25:16;;;;;;;47.85;21.42;;;25.10;38.80;;;;;;4836501;29;20052;-89
2023/06/16 12:27:44;;;;;;;28.13;10.88;;;25.10;38.20;;;;;;4844856;29;20065;-89
2023/06/16 12:30:14;;;;;;;34.80;14.93;;;25.10;38.30;;;;;;4844488;29;20042;-89
2023/06/16 12:32:42;;;;;;;30.92;14.80;;;25.10;40.10;;;;;;4859024;29;20060;-88
2023/06/16 12:35:10;;;;;;;17.13;7.37;;;25.20;39.40;;;;;;4858670;29;20132;-89
2023/06/16 12:37:44;;;;;;;9.20;4.07;;;25.40;38.60;;;;;;4858541;29;20478;-88
2023/06/16 12:40:14;;;;;;;8.57;4.07;;;25.60;36.90;;;;;;4844300;29;20061;-88
2023/06/16 12:42:41;;;;;;;16.00;6.88;;;25.60;37.80;;;;;;4860265;29;20050;-89
2023/06/16 12:45:09;;;;;;;8.43;4.68;;;25.70;37.90;;;;;;4861249;29;20050;-89
2023/06/16 12:47:39;;;;;;;7.93;4.63;;;25.60;39.10;;;;;;4859851;29;20078;-89